createdAt,value
2022-10-14T02:00:48.798Z,94.31
2022-10-14T02:01:09.356Z,94.21
2022-10-14T02:01:30.032Z,94.10
2022-10-14T02:01:50.654Z,94.10
2022-10-14T02:02:11.082Z,94.00
2022-10-14T02:02:31.676Z,93.90
2022-10-14T02:02:52.269Z,93.90
2022-10-14T02:03:12.859Z,93.69
2022-10-14T02:03:33.442Z,93.69
2022-10-14T02:03:54.034Z,93.69
2022-10-14T02:04:14.618Z,93.69
2022-10-14T02:04:35.207Z,93.79
2022-10-14T02:04:55.786Z,93.79
2022-10-14T02:05:16.182Z,93.69
2022-10-14T02:05:36.762Z,93.49
2022-10-14T02:05:57.342Z,93.28
2022-10-14T02:06:17.936Z,93.38
2022-10-14T02:06:38.509Z,93.69
2022-10-14T02:06:59.091Z,93.90
2022-10-14T02:07:19.673Z,94.00
2022-10-14T02:07:40.251Z,94.00
2022-10-14T02:08:00.837Z,94.00
2022-10-14T02:08:21.432Z,93.90
2022-10-14T02:08:42.017Z,93.90
2022-10-14T02:09:02.599Z,93.90
2022-10-14T02:09:23.180Z,93.79
2022-10-14T02:09:43.757Z,93.79
2022-10-14T02:10:04.335Z,93.79
2022-10-14T02:10:24.917Z,93.79
2022-10-14T02:10:45.502Z,93.79
2022-10-14T02:11:06.082Z,93.69
2022-10-14T02:11:26.662Z,93.69
2022-10-14T02:11:47.244Z,93.69
2022-10-14T02:12:07.828Z,93.69
2022-10-14T02:12:28.408Z,93.59
2022-10-14T02:12:48.991Z,93.59
2022-10-14T02:13:09.585Z,93.49
2022-10-14T02:13:30.177Z,93.38
2022-10-14T02:13:50.577Z,93.28
2022-10-14T02:14:11.221Z,93.18
2022-10-14T02:14:31.765Z,93.18
2022-10-14T02:14:52.163Z,93.18
2022-10-14T02:15:12.748Z,93.18
2022-10-14T02:15:33.335Z,93.28
2022-10-14T02:15:53.939Z,93.38
2022-10-14T02:16:14.498Z,93.38
2022-10-14T02:16:35.083Z,93.38
2022-10-14T02:16:55.667Z,93.38
2022-10-14T02:17:16.247Z,93.59
2022-10-14T02:17:36.830Z,93.69
2022-10-14T02:17:57.429Z,93.79
2022-10-14T02:18:18.012Z,93.79
2022-10-14T02:18:38.623Z,93.79
2022-10-14T02:18:59.203Z,93.59
2022-10-14T02:19:19.782Z,93.49
2022-10-14T02:19:40.377Z,93.49
2022-10-14T02:20:00.945Z,93.49
2022-10-14T02:20:21.529Z,93.49
2022-10-14T02:20:42.110Z,93.38
2022-10-14T02:21:02.694Z,93.38
2022-10-14T02:21:23.279Z,93.28
2022-10-14T02:21:43.865Z,93.32
2022-10-14T02:22:04.445Z,93.28
2022-10-14T02:22:25.025Z,93.18
2022-10-14T02:22:45.612Z,93.18
2022-10-14T02:23:06.196Z,93.07
2022-10-14T02:23:26.775Z,93.12
2022-10-14T02:23:47.374Z,93.12
2022-10-14T02:24:07.957Z,93.12
2022-10-14T02:24:28.534Z,93.12
2022-10-14T02:24:49.117Z,93.01
2022-10-14T02:25:09.703Z,92.91
2022-10-14T02:25:30.287Z,92.80
2022-10-14T02:25:50.872Z,92.80
2022-10-14T02:26:11.446Z,92.80
2022-10-14T02:26:31.842Z,92.80
2022-10-14T02:26:52.246Z,93.01
2022-10-14T02:27:12.821Z,93.12
2022-10-14T02:27:33.404Z,93.22
2022-10-14T02:27:53.988Z,93.22
2022-10-14T02:28:14.630Z,93.32
2022-10-14T02:28:35.212Z,93.22
2022-10-14T02:28:55.683Z,93.22
2022-10-14T02:29:16.257Z,93.32
2022-10-14T02:29:36.840Z,93.43
2022-10-14T02:29:57.423Z,93.43
2022-10-14T02:30:17.815Z,93.32
2022-10-14T02:30:38.398Z,93.32
2022-10-14T02:30:59.024Z,93.43
2022-10-14T02:31:19.567Z,93.43
2022-10-14T02:31:40.147Z,93.32
2022-10-14T02:32:00.733Z,93.32
2022-10-14T02:32:21.575Z,93.32
2022-10-14T02:32:42.228Z,93.32
2022-10-14T02:33:02.814Z,93.22
2022-10-14T02:33:23.401Z,93.12
2022-10-14T02:33:43.995Z,93.01
2022-10-14T02:34:04.577Z,92.91
2022-10-14T02:34:25.175Z,92.91
2022-10-14T02:34:45.755Z,92.80
2022-10-14T02:35:06.336Z,92.80
2022-10-14T02:35:26.919Z,92.80
2022-10-14T02:35:47.502Z,92.80
2022-10-14T02:36:08.091Z,92.91
2022-10-14T02:36:28.670Z,92.80
2022-10-14T02:36:49.255Z,92.91
2022-10-14T02:37:09.651Z,93.01
2022-10-14T02:37:30.234Z,93.12
2022-10-14T02:37:50.813Z,93.12
2022-10-14T02:38:11.396Z,93.12
2022-10-14T02:38:31.979Z,93.22
2022-10-14T02:38:52.581Z,93.32
2022-10-14T02:39:12.975Z,93.32
2022-10-14T02:39:33.557Z,93.22
2022-10-14T02:39:54.145Z,93.22
2022-10-14T02:40:14.722Z,93.22
2022-10-14T02:40:35.302Z,93.32
2022-10-14T02:40:55.887Z,93.22
2022-10-14T02:41:16.466Z,93.22
2022-10-14T02:41:37.052Z,93.22
2022-10-14T02:41:57.630Z,93.22
2022-10-14T02:42:18.312Z,93.12
2022-10-14T02:42:38.928Z,93.12
2022-10-14T02:42:59.513Z,93.01
2022-10-14T02:43:20.087Z,92.91
2022-10-14T02:43:40.678Z,92.91
2022-10-14T02:44:01.288Z,92.91
2022-10-14T02:44:21.880Z,92.91
2022-10-14T02:44:42.463Z,92.85
2022-10-14T02:45:03.037Z,92.91
2022-10-14T02:45:23.621Z,93.16
2022-10-14T02:45:44.204Z,93.26
2022-10-14T02:46:04.806Z,93.22
2022-10-14T02:46:25.369Z,93.32
2022-10-14T02:46:45.954Z,93.37
2022-10-14T02:47:06.543Z,93.37
2022-10-14T02:47:27.119Z,93.37
2022-10-14T02:47:47.698Z,93.37
2022-10-14T02:48:08.278Z,93.37
2022-10-14T02:48:28.860Z,93.47
2022-10-14T02:48:49.455Z,93.47
2022-10-14T02:49:10.036Z,93.47
2022-10-14T02:49:30.632Z,93.47
2022-10-14T02:49:51.203Z,93.37
2022-10-14T02:50:11.795Z,93.37
2022-10-14T02:50:32.370Z,93.37
2022-10-14T02:50:52.947Z,93.37
2022-10-14T02:51:13.535Z,93.37
2022-10-14T02:51:34.118Z,93.47
2022-10-14T02:51:54.706Z,93.57
2022-10-14T02:52:15.292Z,93.68
2022-10-14T02:52:35.871Z,93.68
2022-10-14T02:52:56.449Z,93.57
2022-10-14T02:53:17.034Z,93.57
2022-10-14T02:53:37.619Z,93.57
2022-10-14T02:53:58.228Z,93.37
2022-10-14T02:54:18.616Z,93.37
2022-10-14T02:54:39.201Z,93.37
2022-10-14T02:54:59.782Z,93.37
2022-10-14T02:55:20.363Z,93.57
2022-10-14T02:55:40.951Z,93.68
2022-10-14T02:56:01.540Z,93.57
2022-10-14T02:56:22.123Z,93.57
2022-10-14T02:56:42.707Z,93.57
2022-10-14T02:57:03.290Z,93.57
2022-10-14T02:57:23.880Z,93.57
2022-10-14T02:57:44.280Z,93.78
2022-10-14T02:58:04.874Z,93.78
2022-10-14T02:58:25.454Z,93.88
2022-10-14T02:58:46.056Z,93.68
2022-10-14T02:59:06.637Z,93.68
2022-10-14T02:59:27.225Z,93.88
2022-10-14T02:59:47.806Z,93.88
2022-10-14T03:00:08.387Z,93.88
2022-10-14T03:00:28.779Z,93.98
2022-10-14T03:00:49.367Z,94.09
2022-10-14T03:01:09.974Z,93.98
2022-10-14T03:01:33.771Z,93.98
2022-10-14T03:01:51.080Z,93.98
2022-10-14T03:02:11.747Z,93.68
2022-10-14T03:02:32.334Z,93.78
2022-10-14T03:02:52.731Z,93.78
2022-10-14T03:03:13.309Z,93.68
2022-10-14T03:03:33.895Z,93.68
2022-10-14T03:03:54.493Z,93.78
2022-10-14T03:04:15.075Z,93.78
2022-10-14T03:04:35.667Z,93.88
2022-10-14T03:04:56.253Z,94.19
2022-10-14T03:05:16.835Z,94.19
2022-10-14T03:05:37.419Z,94.09
2022-10-14T03:05:58.000Z,93.68
2022-10-14T03:06:18.583Z,93.37
2022-10-14T03:06:39.169Z,93.05
2022-10-14T03:06:59.748Z,92.95
2022-10-14T03:07:20.328Z,92.89
2022-10-14T03:07:40.910Z,92.99
2022-10-14T03:08:01.491Z,93.10
2022-10-14T03:08:22.073Z,93.20
2022-10-14T03:08:42.471Z,93.30
2022-10-14T03:09:03.069Z,93.51
2022-10-14T03:09:23.647Z,93.82
2022-10-14T03:09:44.231Z,94.23
2022-10-14T03:10:04.807Z,94.65
2022-10-14T03:10:25.391Z,94.96
2022-10-14T03:10:45.972Z,95.27
2022-10-14T03:11:06.557Z,95.27
2022-10-14T03:11:27.139Z,95.48
2022-10-14T03:11:47.724Z,95.57
2022-10-14T03:12:08.306Z,95.48
2022-10-14T03:12:28.885Z,95.48
2022-10-14T03:12:49.466Z,95.48
2022-10-14T03:13:09.861Z,95.27
2022-10-14T03:13:30.442Z,95.17
2022-10-14T03:13:51.039Z,94.85
2022-10-14T03:14:11.435Z,94.85
2022-10-14T03:14:31.826Z,94.96
2022-10-14T03:14:52.406Z,95.06
2022-10-14T03:15:12.990Z,95.17
2022-10-14T03:15:33.591Z,95.17
2022-10-14T03:15:54.170Z,95.17
2022-10-14T03:16:14.776Z,95.06
2022-10-14T03:16:35.337Z,94.96
2022-10-14T03:16:55.915Z,95.06
2022-10-14T03:17:16.497Z,95.17
2022-10-14T03:17:37.085Z,95.27
2022-10-14T03:17:57.668Z,95.27
2022-10-14T03:18:18.255Z,95.27
2022-10-14T03:18:38.836Z,95.37
2022-10-14T03:18:59.433Z,95.57
2022-10-14T03:19:20.017Z,95.57
2022-10-14T03:19:40.601Z,95.48
2022-10-14T03:20:01.190Z,95.43
2022-10-14T03:20:21.767Z,95.53
2022-10-14T03:20:42.351Z,95.48
2022-10-14T03:21:02.926Z,95.43
2022-10-14T03:21:23.508Z,95.32
2022-10-14T03:21:44.091Z,95.12
2022-10-14T03:22:04.678Z,95.02
2022-10-14T03:22:25.259Z,95.02
2022-10-14T03:22:45.844Z,95.02
2022-10-14T03:23:06.425Z,95.12
2022-10-14T03:23:26.817Z,95.12
2022-10-14T03:23:47.411Z,95.12
2022-10-14T03:24:07.994Z,95.22
2022-10-14T03:24:28.575Z,95.32
2022-10-14T03:24:49.176Z,95.53
2022-10-14T03:25:09.757Z,95.53
2022-10-14T03:25:30.338Z,95.64
2022-10-14T03:25:50.927Z,95.64
2022-10-14T03:26:13.974Z,95.64
2022-10-14T03:26:31.901Z,95.64
2022-10-14T03:26:52.487Z,95.74
2022-10-14T03:27:13.076Z,95.74
2022-10-14T03:27:33.657Z,95.53
2022-10-14T03:27:54.240Z,95.53
2022-10-14T03:28:14.942Z,95.43
2022-10-14T03:28:35.319Z,95.32
2022-10-14T03:28:55.942Z,95.32
2022-10-14T03:29:16.523Z,95.22
2022-10-14T03:29:37.109Z,95.22
2022-10-14T03:29:57.688Z,95.22
2022-10-14T03:30:18.271Z,95.22
2022-10-14T03:30:38.850Z,95.22
2022-10-14T03:30:59.433Z,95.12
2022-10-14T03:31:20.038Z,95.02
2022-10-14T03:31:40.599Z,95.02
2022-10-14T03:32:01.176Z,95.02
2022-10-14T03:32:21.981Z,95.12
2022-10-14T03:32:42.767Z,95.12
2022-10-14T03:33:03.165Z,95.12
2022-10-14T03:33:26.347Z,95.12
2022-10-14T03:33:47.296Z,95.02
2022-10-14T03:34:07.895Z,94.92
2022-10-14T03:34:28.477Z,94.81
2022-10-14T03:34:49.058Z,94.71
2022-10-14T03:35:09.453Z,94.71
2022-10-14T03:35:30.035Z,94.81
2022-10-14T03:35:50.617Z,94.81
2022-10-14T03:36:11.202Z,94.85
2022-10-14T03:36:31.787Z,94.81
2022-10-14T03:36:52.371Z,95.06
2022-10-14T03:37:12.954Z,95.27
2022-10-14T03:37:33.342Z,95.37
2022-10-14T03:37:53.925Z,95.48
2022-10-14T03:38:14.507Z,95.64
2022-10-14T03:38:34.935Z,95.53
2022-10-14T03:38:55.504Z,95.64
2022-10-14T03:39:16.101Z,95.84
2022-10-14T03:39:36.683Z,95.84
2022-10-14T03:39:57.267Z,95.89
2022-10-14T03:40:17.857Z,95.95
2022-10-14T03:40:38.435Z,96.05
2022-10-14T03:40:59.017Z,96.15
2022-10-14T03:41:19.602Z,96.15
2022-10-14T03:41:40.186Z,96.15
2022-10-14T03:42:00.769Z,96.15
2022-10-14T03:42:21.553Z,96.26
2022-10-14T03:42:42.295Z,96.15
2022-10-14T03:43:02.880Z,96.15
2022-10-14T03:43:23.472Z,96.05
2022-10-14T03:43:44.051Z,95.95
2022-10-14T03:44:04.653Z,95.84
2022-10-14T03:44:25.049Z,95.74
2022-10-14T03:44:45.628Z,95.64
2022-10-14T03:45:06.214Z,95.53
2022-10-14T03:45:26.794Z,95.53
2022-10-14T03:45:47.190Z,95.53
2022-10-14T03:46:07.775Z,95.64
2022-10-14T03:46:28.377Z,95.74
2022-10-14T03:46:48.939Z,95.74
2022-10-14T03:47:09.516Z,95.74
2022-10-14T03:47:30.098Z,95.84
2022-10-14T03:47:50.682Z,95.84
2022-10-14T03:48:11.267Z,95.74
2022-10-14T03:48:31.851Z,95.64
2022-10-14T03:48:52.436Z,95.64
2022-10-14T03:49:13.041Z,95.64
2022-10-14T03:49:33.622Z,95.64
2022-10-14T03:49:54.209Z,95.74
2022-10-14T03:50:14.789Z,95.74
2022-10-14T03:50:35.185Z,95.74
2022-10-14T03:50:55.583Z,95.74
2022-10-14T03:51:16.162Z,95.74
2022-10-14T03:51:36.744Z,95.84
2022-10-14T03:51:57.327Z,95.95
2022-10-14T03:52:17.912Z,95.95
2022-10-14T03:52:38.500Z,95.84
2022-10-14T03:52:59.087Z,95.84
2022-10-14T03:53:19.666Z,95.74
2022-10-14T03:53:40.249Z,95.74
2022-10-14T03:54:00.833Z,95.74
2022-10-14T03:54:21.435Z,95.74
2022-10-14T03:54:42.019Z,95.74
2022-10-14T03:55:02.612Z,95.64
2022-10-14T03:55:23.185Z,95.64
2022-10-14T03:55:43.766Z,95.74
2022-10-14T03:56:04.347Z,95.74
2022-10-14T03:56:24.931Z,95.64
2022-10-14T03:56:45.512Z,95.64
2022-10-14T03:57:06.096Z,95.53
2022-10-14T03:57:26.679Z,95.43
2022-10-14T03:57:47.260Z,95.43
2022-10-14T03:58:07.844Z,95.32
2022-10-14T03:58:28.421Z,95.12
2022-10-14T03:58:49.009Z,94.92
2022-10-14T03:59:09.594Z,94.71
2022-10-14T03:59:30.197Z,94.50
2022-10-14T03:59:50.781Z,94.40
2022-10-14T04:00:11.362Z,94.40
2022-10-14T04:00:31.947Z,94.50
2022-10-14T04:00:52.545Z,94.60
2022-10-14T04:01:13.117Z,94.75
2022-10-14T04:01:33.770Z,95.06
2022-10-14T04:01:54.486Z,95.37
2022-10-14T04:02:15.058Z,95.68
2022-10-14T04:02:35.645Z,95.78
2022-10-14T04:02:56.229Z,95.89
2022-10-14T04:03:16.810Z,95.89
2022-10-14T04:03:37.398Z,95.89
2022-10-14T04:03:57.975Z,95.89
2022-10-14T04:04:18.557Z,95.89
2022-10-14T04:04:39.156Z,95.89
2022-10-14T04:05:01.019Z,95.89
2022-10-14T04:05:21.823Z,95.99
2022-10-14T04:05:42.386Z,95.99
2022-10-14T04:06:02.968Z,95.99
2022-10-14T04:06:23.548Z,95.99
2022-10-14T04:06:44.125Z,95.89
2022-10-14T04:07:04.704Z,95.99
2022-10-14T04:07:25.292Z,95.99
2022-10-14T04:07:45.878Z,95.99
2022-10-14T04:08:06.461Z,95.99
2022-10-14T04:08:27.038Z,95.99
2022-10-14T04:08:47.621Z,95.84
2022-10-14T04:09:08.203Z,95.84
2022-10-14T04:09:28.786Z,95.74
2022-10-14T04:09:49.380Z,95.64
2022-10-14T04:10:09.963Z,95.53
2022-10-14T04:10:30.547Z,95.43
2022-10-14T04:10:51.120Z,95.37
2022-10-14T04:11:11.703Z,95.22
2022-10-14T04:11:32.290Z,95.22
2022-10-14T04:11:52.866Z,95.06
2022-10-14T04:12:13.456Z,94.85
2022-10-14T04:12:34.036Z,94.65
2022-10-14T04:12:54.621Z,94.54
2022-10-14T04:13:15.202Z,94.65
2022-10-14T04:13:35.783Z,94.96
2022-10-14T04:13:56.366Z,95.17
2022-10-14T04:14:16.948Z,95.27
2022-10-14T04:14:37.341Z,95.37
2022-10-14T04:14:57.945Z,95.57
2022-10-14T04:15:18.528Z,95.57
2022-10-14T04:15:39.105Z,95.57
2022-10-14T04:15:59.692Z,95.57
2022-10-14T04:16:20.267Z,95.57
2022-10-14T04:16:40.868Z,95.57
2022-10-14T04:17:01.438Z,95.48
2022-10-14T04:17:21.825Z,95.48
2022-10-14T04:17:42.409Z,95.57
2022-10-14T04:18:02.991Z,95.57
2022-10-14T04:18:23.575Z,95.37
2022-10-14T04:18:43.975Z,95.27
2022-10-14T04:19:04.557Z,94.85
2022-10-14T04:19:25.144Z,94.75
2022-10-14T04:19:45.726Z,94.54
2022-10-14T04:20:06.322Z,94.54
2022-10-14T04:20:26.903Z,94.54
2022-10-14T04:20:47.486Z,94.44
2022-10-14T04:21:07.881Z,94.23
2022-10-14T04:21:28.464Z,94.23
2022-10-14T04:21:49.045Z,94.23
2022-10-14T04:22:09.628Z,94.44
2022-10-14T04:22:30.209Z,94.75
2022-10-14T04:22:50.791Z,95.06
2022-10-14T04:23:11.186Z,95.17
2022-10-14T04:23:31.766Z,95.17
2022-10-14T04:23:52.345Z,95.27
2022-10-14T04:24:12.925Z,95.27
2022-10-14T04:24:33.509Z,95.27
2022-10-14T04:24:54.103Z,95.27
2022-10-14T04:25:14.686Z,95.17
2022-10-14T04:25:35.268Z,95.17
2022-10-14T04:25:55.845Z,95.17
2022-10-14T04:26:16.426Z,95.17
2022-10-14T04:26:37.010Z,95.17
2022-10-14T04:26:57.587Z,95.17
2022-10-14T04:27:18.176Z,95.27
2022-10-14T04:27:38.756Z,95.27
2022-10-14T04:27:59.341Z,95.27
2022-10-14T04:28:19.982Z,95.17
2022-10-14T04:28:40.607Z,95.17
2022-10-14T04:29:01.311Z,94.96
2022-10-14T04:29:21.889Z,94.96
2022-10-14T04:29:42.484Z,95.06
2022-10-14T04:30:03.065Z,95.27
2022-10-14T04:30:23.644Z,95.27
2022-10-14T04:30:44.227Z,95.17
2022-10-14T04:31:04.806Z,95.06
2022-10-14T04:31:25.386Z,95.06
2022-10-14T04:31:45.989Z,94.96
2022-10-14T04:32:06.564Z,94.96
2022-10-14T04:32:27.131Z,94.96
2022-10-14T04:32:47.725Z,95.06
2022-10-14T04:33:08.122Z,95.17
2022-10-14T04:33:28.693Z,95.17
2022-10-14T04:33:49.278Z,95.27
2022-10-14T04:34:09.858Z,95.27
2022-10-14T04:34:30.439Z,95.17
2022-10-14T04:34:51.037Z,95.17
2022-10-14T04:35:11.619Z,95.17
2022-10-14T04:35:32.202Z,95.17
2022-10-14T04:35:52.782Z,95.17
2022-10-14T04:36:13.362Z,95.27
2022-10-14T04:36:33.946Z,95.27
2022-10-14T04:36:54.531Z,95.37
2022-10-14T04:37:14.924Z,95.48
2022-10-14T04:37:35.508Z,95.68
2022-10-14T04:37:56.086Z,95.57
2022-10-14T04:38:16.669Z,95.48
2022-10-14T04:38:37.248Z,95.48
2022-10-14T04:38:57.834Z,95.48
2022-10-14T04:39:18.412Z,95.48
2022-10-14T04:39:38.997Z,95.48
2022-10-14T04:39:59.602Z,95.37
2022-10-14T04:40:19.991Z,95.37
2022-10-14T04:40:40.574Z,95.37
2022-10-14T04:41:01.149Z,95.37
2022-10-14T04:41:21.728Z,95.37
2022-10-14T04:41:42.318Z,95.37
2022-10-14T04:42:02.889Z,95.27
2022-10-14T04:42:23.841Z,95.27
2022-10-14T04:42:44.517Z,95.27
2022-10-14T04:43:05.106Z,95.27
2022-10-14T04:43:25.686Z,95.27
2022-10-14T04:43:46.270Z,95.37
2022-10-14T04:44:06.856Z,95.48
2022-10-14T04:44:27.435Z,95.48
2022-10-14T04:44:47.837Z,95.57
2022-10-14T04:45:08.427Z,95.57
2022-10-14T04:45:29.008Z,95.57
2022-10-14T04:45:49.590Z,95.68
2022-10-14T04:46:10.175Z,95.57
2022-10-14T04:46:30.761Z,95.57
2022-10-14T04:46:51.372Z,95.48
2022-10-14T04:47:11.933Z,95.48
2022-10-14T04:47:32.518Z,95.48
2022-10-14T04:47:53.103Z,95.48
2022-10-14T04:48:13.686Z,95.48
2022-10-14T04:48:34.281Z,95.57
2022-10-14T04:48:54.864Z,95.68
2022-10-14T04:49:15.447Z,95.68
2022-10-14T04:49:36.029Z,95.68
2022-10-14T04:49:56.624Z,95.68
2022-10-14T04:50:17.202Z,95.78
2022-10-14T04:50:37.788Z,95.78
2022-10-14T04:50:58.370Z,95.68
2022-10-14T04:51:18.955Z,95.57
2022-10-14T04:51:39.602Z,95.48
2022-10-14T04:52:00.195Z,95.37
2022-10-14T04:52:21.087Z,95.37
2022-10-14T04:52:41.737Z,95.48
2022-10-14T04:53:02.129Z,95.57
2022-10-14T04:53:22.711Z,95.57
2022-10-14T04:53:43.292Z,95.57
2022-10-14T04:54:03.882Z,95.68
2022-10-14T04:54:24.469Z,95.78
2022-10-14T04:54:45.043Z,95.68
2022-10-14T04:55:05.637Z,95.57
2022-10-14T04:55:26.040Z,95.48
2022-10-14T04:55:46.615Z,95.37
2022-10-14T04:56:07.200Z,95.27
2022-10-14T04:56:27.781Z,95.21
2022-10-14T04:56:48.367Z,95.10
2022-10-14T04:57:08.952Z,95.10
2022-10-14T04:57:29.534Z,95.10
2022-10-14T04:57:50.117Z,95.10
2022-10-14T04:58:10.693Z,95.21
2022-10-14T04:58:31.273Z,95.42
2022-10-14T04:58:51.860Z,95.73
2022-10-14T04:59:12.435Z,95.83
2022-10-14T04:59:33.021Z,96.03
2022-10-14T04:59:53.413Z,96.24
2022-10-14T05:00:14.005Z,96.45
2022-10-14T05:00:34.592Z,96.55
2022-10-14T05:00:55.184Z,96.76
2022-10-14T05:01:15.819Z,96.66
2022-10-14T05:01:36.463Z,96.45
2022-10-14T05:01:57.147Z,96.34
2022-10-14T05:02:17.781Z,96.34
2022-10-14T05:02:38.378Z,96.55
2022-10-14T05:02:58.967Z,96.76
2022-10-14T05:03:19.543Z,96.86
2022-10-14T05:03:40.127Z,96.86
2022-10-14T05:04:00.719Z,96.86
2022-10-14T05:04:21.292Z,96.86
2022-10-14T05:04:41.876Z,96.86
2022-10-14T05:05:02.274Z,96.76
2022-10-14T05:05:22.873Z,96.76
2022-10-14T05:05:43.452Z,96.76
2022-10-14T05:06:04.038Z,96.66
2022-10-14T05:06:24.618Z,96.66
2022-10-14T05:06:45.197Z,96.66
2022-10-14T05:07:05.780Z,96.55
2022-10-14T05:07:26.176Z,96.55
2022-10-14T05:07:46.756Z,96.66
2022-10-14T05:08:07.337Z,96.66
2022-10-14T05:08:27.920Z,96.66
2022-10-14T05:08:48.507Z,96.76
2022-10-14T05:09:09.091Z,96.61
2022-10-14T05:09:29.679Z,96.41
2022-10-14T05:09:54.187Z,96.14
2022-10-14T05:10:10.654Z,95.94
2022-10-14T05:10:31.247Z,95.73
2022-10-14T05:10:51.830Z,95.73
2022-10-14T05:11:12.413Z,95.73
2022-10-14T05:11:32.998Z,95.62
2022-10-14T05:11:53.390Z,95.62
2022-10-14T05:12:13.973Z,95.73
2022-10-14T05:12:34.557Z,95.94
2022-10-14T05:12:55.137Z,96.14
2022-10-14T05:13:15.720Z,96.24
2022-10-14T05:13:36.301Z,96.34
2022-10-14T05:13:56.882Z,96.55
2022-10-14T05:14:17.464Z,96.66
2022-10-14T05:14:38.044Z,96.86
2022-10-14T05:14:58.625Z,96.86
2022-10-14T05:15:19.205Z,96.97
2022-10-14T05:15:39.614Z,97.17
2022-10-14T05:16:00.193Z,97.17
2022-10-14T05:16:20.773Z,97.28
2022-10-14T05:16:41.172Z,97.28
2022-10-14T05:17:01.774Z,97.28
2022-10-14T05:17:22.334Z,97.17
2022-10-14T05:17:42.734Z,96.97
2022-10-14T05:18:03.313Z,96.86
2022-10-14T05:18:23.901Z,96.86
2022-10-14T05:18:44.483Z,96.86
2022-10-14T05:19:05.066Z,96.86
2022-10-14T05:19:25.649Z,96.97
2022-10-14T05:19:46.230Z,96.97
2022-10-14T05:20:06.813Z,97.07
2022-10-14T05:20:27.441Z,97.07
2022-10-14T05:20:47.837Z,97.07
2022-10-14T05:21:08.231Z,97.02
2022-10-14T05:21:28.810Z,97.02
2022-10-14T05:21:49.392Z,97.02
2022-10-14T05:22:09.975Z,97.02
2022-10-14T05:22:30.559Z,97.02
2022-10-14T05:22:51.138Z,97.13
2022-10-14T05:23:11.725Z,97.13
2022-10-14T05:23:32.305Z,97.13
2022-10-14T05:23:52.890Z,97.13
2022-10-14T05:24:13.468Z,96.92
2022-10-14T05:24:34.055Z,96.92
2022-10-14T05:24:54.641Z,96.92
2022-10-14T05:25:15.221Z,96.92
2022-10-14T05:25:35.814Z,96.82
2022-10-14T05:25:56.392Z,96.72
2022-10-14T05:26:16.977Z,96.61
2022-10-14T05:26:37.562Z,96.61
2022-10-14T05:26:58.150Z,96.61
2022-10-14T05:27:18.727Z,96.61
2022-10-14T05:27:39.310Z,96.61
2022-10-14T05:27:59.891Z,96.72
2022-10-14T05:28:20.582Z,96.72
2022-10-14T05:28:41.267Z,96.82
2022-10-14T05:29:01.912Z,96.92
2022-10-14T05:29:22.487Z,96.92
2022-10-14T05:29:42.880Z,97.02
2022-10-14T05:30:03.284Z,97.02
2022-10-14T05:30:23.856Z,97.13
2022-10-14T05:30:44.452Z,97.13
2022-10-14T05:31:05.036Z,97.13
2022-10-14T05:31:25.621Z,97.23
2022-10-14T05:31:46.196Z,97.23
2022-10-14T05:32:06.803Z,97.23
2022-10-14T05:32:27.367Z,97.23
2022-10-14T05:32:47.956Z,97.23
2022-10-14T05:33:08.528Z,97.23
2022-10-14T05:33:29.113Z,97.23
2022-10-14T05:33:49.698Z,97.13
2022-10-14T05:34:10.276Z,97.13
2022-10-14T05:34:30.892Z,97.13
2022-10-14T05:34:51.464Z,97.13
2022-10-14T05:35:11.857Z,97.13
2022-10-14T05:35:57.127Z,97.13
2022-10-14T05:36:00.163Z,97.13
2022-10-14T05:36:13.268Z,97.13
2022-10-14T05:36:33.854Z,97.23
2022-10-14T05:36:54.434Z,97.23
2022-10-14T05:37:15.012Z,97.33
2022-10-14T05:37:35.598Z,97.33
2022-10-14T05:37:58.552Z,97.33
2022-10-14T05:38:16.594Z,97.44
2022-10-14T05:38:37.182Z,97.44
2022-10-14T05:38:57.767Z,97.54
2022-10-14T05:39:18.351Z,97.54
2022-10-14T05:39:38.932Z,97.64
2022-10-14T05:39:59.515Z,97.64
2022-10-14T05:40:20.096Z,97.54
2022-10-14T05:40:40.754Z,97.54
2022-10-14T05:41:01.336Z,97.54
2022-10-14T05:41:21.947Z,97.54
2022-10-14T05:41:42.542Z,97.54
2022-10-14T05:42:03.125Z,97.54
2022-10-14T05:42:23.857Z,97.54
2022-10-14T05:42:44.632Z,97.54
2022-10-14T05:43:05.213Z,97.64
2022-10-14T05:43:31.181Z,97.64
2022-10-14T05:43:46.200Z,97.54
2022-10-14T05:44:06.795Z,97.64
2022-10-14T05:44:27.369Z,97.64
2022-10-14T05:44:47.953Z,97.64
2022-10-14T05:45:08.545Z,97.64
2022-10-14T05:45:29.116Z,97.64
2022-10-14T05:45:49.709Z,97.64
2022-10-14T05:46:10.291Z,97.64
2022-10-14T05:46:30.873Z,97.64
2022-10-14T05:46:51.267Z,97.64
2022-10-14T05:47:11.687Z,97.60
2022-10-14T05:47:32.246Z,97.75
2022-10-14T05:47:52.827Z,97.71
2022-10-14T05:48:13.217Z,97.71
2022-10-14T05:48:33.614Z,97.71
2022-10-14T05:48:54.193Z,97.71
2022-10-14T05:49:14.777Z,97.71
2022-10-14T05:49:35.356Z,97.71
2022-10-14T05:49:55.938Z,97.71
2022-10-14T05:50:16.521Z,97.71
2022-10-14T05:50:37.104Z,97.71
2022-10-14T05:50:57.699Z,97.81
2022-10-14T05:51:18.280Z,97.81
2022-10-14T05:51:38.850Z,97.71
2022-10-14T05:51:59.435Z,97.71
2022-10-14T05:52:20.546Z,97.71
2022-10-14T05:52:40.413Z,97.60
2022-10-14T05:53:00.996Z,97.60
2022-10-14T05:53:21.581Z,97.60
2022-10-14T05:53:42.164Z,97.60
2022-10-14T05:54:02.749Z,97.60
2022-10-14T05:54:23.334Z,97.60
2022-10-14T05:54:43.910Z,97.60
2022-10-14T05:55:04.489Z,97.50
2022-10-14T05:55:24.887Z,97.50
2022-10-14T05:55:45.291Z,97.50
2022-10-14T05:56:05.887Z,97.50
2022-10-14T05:56:26.470Z,97.50
2022-10-14T05:56:46.864Z,97.50
2022-10-14T05:57:07.444Z,97.50
2022-10-14T05:57:28.022Z,97.39
2022-10-14T05:57:48.609Z,97.39
2022-10-14T05:58:09.189Z,97.50
2022-10-14T05:58:29.773Z,97.39
2022-10-14T05:58:50.352Z,97.39
2022-10-14T05:59:10.946Z,97.39
2022-10-14T05:59:31.526Z,97.39
2022-10-14T05:59:52.108Z,97.39
2022-10-14T06:00:12.694Z,97.39
2022-10-14T06:00:33.272Z,97.39
2022-10-14T06:00:53.857Z,97.39
2022-10-14T06:01:14.460Z,97.39
2022-10-14T06:01:34.854Z,97.39
2022-10-14T06:01:55.434Z,97.39
2022-10-14T06:02:16.038Z,97.39
2022-10-14T06:02:36.599Z,97.39
2022-10-14T06:02:57.027Z,97.39
2022-10-14T06:03:17.663Z,97.39
2022-10-14T06:03:38.293Z,97.39
2022-10-14T06:03:58.895Z,97.50
2022-10-14T06:04:19.466Z,97.45
2022-10-14T06:04:40.063Z,97.45
2022-10-14T06:05:00.635Z,97.55
2022-10-14T06:05:21.232Z,97.55
2022-10-14T06:05:41.808Z,97.55
2022-10-14T06:06:02.390Z,97.66
2022-10-14T06:06:28.048Z,97.66
2022-10-14T06:06:43.393Z,97.76
2022-10-14T06:07:03.974Z,97.76
2022-10-14T06:07:24.557Z,97.76
2022-10-14T06:07:45.149Z,97.66
2022-10-14T06:08:05.732Z,97.66
2022-10-14T06:08:26.313Z,97.66
2022-10-14T06:08:46.896Z,97.66
2022-10-14T06:09:11.187Z,97.76
2022-10-14T06:09:27.865Z,97.86
2022-10-14T06:09:48.443Z,97.97
2022-10-14T06:10:09.022Z,98.07
2022-10-14T06:10:29.605Z,98.18
2022-10-14T06:10:50.186Z,98.28
2022-10-14T06:11:10.583Z,98.28
2022-10-14T06:11:31.192Z,98.38
2022-10-14T06:11:51.785Z,98.38
2022-10-14T06:12:12.362Z,98.49
2022-10-14T06:12:32.958Z,98.58
2022-10-14T06:12:53.561Z,98.58
2022-10-14T06:13:14.163Z,98.69
2022-10-14T06:13:34.747Z,98.69
2022-10-14T06:13:55.339Z,98.69
2022-10-14T06:14:15.919Z,98.69
2022-10-14T06:14:36.318Z,98.79
2022-10-14T06:14:56.904Z,98.90
2022-10-14T06:15:17.293Z,98.90
2022-10-14T06:15:37.879Z,98.90
2022-10-14T06:15:58.462Z,99.00
2022-10-14T06:16:19.057Z,99.10
2022-10-14T06:16:39.642Z,99.10
2022-10-14T06:17:00.222Z,99.21
2022-10-14T06:17:20.828Z,99.16
2022-10-14T06:17:41.394Z,99.31
2022-10-14T06:18:01.976Z,99.31
2022-10-14T06:18:22.574Z,99.31
2022-10-14T06:18:43.149Z,99.31
2022-10-14T06:19:03.741Z,99.26
2022-10-14T06:19:24.309Z,99.26
2022-10-14T06:19:44.892Z,99.26
2022-10-14T06:20:05.472Z,99.26
2022-10-14T06:20:26.055Z,99.26
2022-10-14T06:20:46.642Z,99.26
2022-10-14T06:21:07.279Z,99.37
2022-10-14T06:21:27.865Z,99.47
2022-10-14T06:21:48.457Z,99.47
2022-10-14T06:22:08.852Z,99.57
2022-10-14T06:22:29.435Z,99.57
2022-10-14T06:22:50.028Z,99.68
2022-10-14T06:23:10.413Z,99.68
2022-10-14T06:23:30.997Z,99.68
2022-10-14T06:23:51.582Z,99.78
2022-10-14T06:24:12.166Z,99.88
2022-10-14T06:24:32.746Z,99.88
2022-10-14T06:24:53.148Z,99.88
2022-10-14T06:25:13.735Z,99.99
2022-10-14T06:25:34.322Z,99.99